Time;durP1;ratioP1;P1;durP2;ratioP2;P2;SDS_P1;SDS_P2;PMS_P1;PMS_P2;Temp;Humidity;BMP_temperature;BMP_pressure;BME280_temperature;BME280_humidity;BME280_pressure;Samples;Min_cycle;Max_cycle;Signal;HPM_P1;HPM_P2
2022/05/11 00:00:41;;;;;;;;;;;19.40;82.70;;;;;;4595651;19;19925;-26
2022/05/11 00:02:12;;;;;;;;;;;19.40;82.80;;;;;;4595229;19;19935;-26
2022/05/11 00:03:43;;;;;;;;;;;19.40;82.80;;;;;;4595662;19;20242;-28
2022/05/11 00:05:14;;;;;;;;;;;19.40;82.90;;;;;;4595109;19;19996;-27
2022/05/11 00:06:45;;;;;;;;;;;19.40;82.90;;;;;;4595422;19;20247;-24
2022/05/11 00:08:16;;;;;;;;;;;19.40;82.90;;;;;;4595126;19;20258;-24
2022/05/11 00:09:47;;;;;;;;;;;19.40;83.00;;;;;;4595022;19;19915;-29
2022/05/11 00:11:18;;;;;;;;;;;19.40;83.00;;;;;;4595050;19;19924;-25
2022/05/11 00:12:50;;;;;;;;;;;19.40;83.00;;;;;;4593175;19;20317;-27
2022/05/11 00:14:20;;;;;;;;;;;19.40;83.00;;;;;;4595033;19;19965;-25
2022/05/11 00:15:51;;;;;;;;;;;19.40;82.90;;;;;;4594999;19;19919;-24
2022/05/11 00:17:22;;;;;;;;;;;19.50;82.90;;;;;;4593597;19;20374;-24
2022/05/11 00:18:53;;;;;;;;;;;19.50;82.80;;;;;;4595041;19;19911;-28
2022/05/11 00:20:24;;;;;;;;;;;19.60;82.80;;;;;;4595201;19;19966;-24
2022/05/11 00:21:55;;;;;;;;;;;19.60;82.60;;;;;;4595180;19;19918;-25
2022/05/11 00:23:26;;;;;;;;;;;19.60;82.50;;;;;;4594980;19;20310;-24
2022/05/11 00:24:57;;;;;;;;;;;19.60;82.40;;;;;;4594936;19;19922;-27
2022/05/11 00:26:28;;;;;;;;;;;19.60;82.40;;;;;;4595138;19;19921;-26
2022/05/11 00:27:59;;;;;;;;;;;19.70;82.40;;;;;;4594949;19;19919;-27
2022/05/11 00:29:30;;;;;;;;;;;19.70;82.30;;;;;;4594400;19;19935;-25
2022/05/11 00:31:02;;;;;;;;;;;19.60;82.20;;;;;;4593197;19;19930;-24
2022/05/11 00:32:32;;;;;;;;;;;19.70;82.20;;;;;;4592439;19;19930;-28
2022/05/11 00:34:03;;;;;;;;;;;19.70;82.20;;;;;;4594261;19;19915;-27
2022/05/11 00:35:35;;;;;;;;;;;19.70;82.10;;;;;;4594444;19;19948;-31
2022/05/11 00:37:05;;;;;;;;;;;19.70;82.20;;;;;;4594757;19;19915;-29
2022/05/11 00:38:36;;;;;;;;;;;19.60;82.10;;;;;;4594211;19;20322;-29
2022/05/11 00:40:07;;;;;;;;;;;19.70;82.10;;;;;;4593433;19;19911;-27
2022/05/11 00:41:39;;;;;;;;;;;19.70;82.10;;;;;;4593954;19;19918;-25
2022/05/11 00:43:10;;;;;;;;;;;19.70;82.10;;;;;;4594834;19;19922;-28
2022/05/11 00:44:42;;;;;;;;;;;19.60;82.10;;;;;;4593296;19;19923;-25
2022/05/11 00:46:13;;;;;;;;;;;19.60;82.10;;;;;;4593078;19;19923;-25
2022/05/11 00:47:51;;;;;;;;;;;19.60;82.20;;;;;;4594059;19;19919;-25
2022/05/11 00:49:42;;;;;;;;;;;19.60;82.20;;;;;;4594848;19;20324;-28
2022/05/11 00:51:13;;;;;;;;;;;19.60;82.20;;;;;;4594043;19;19919;-24
2022/05/11 00:52:44;;;;;;;;;;;19.60;82.20;;;;;;4591813;19;20235;-27
2022/05/11 00:54:15;;;;;;;;;;;19.60;82.20;;;;;;4593565;19;20255;-27
2022/05/11 00:55:56;;;;;;;;;;;19.60;82.10;;;;;;4594811;19;19930;-27
2022/05/11 00:57:59;;;;;;;;;;;19.60;82.00;;;;;;4593922;19;19915;-25
2022/05/11 00:59:31;;;;;;;;;;;19.60;82.50;;;;;;4592123;19;19914;-25
2022/05/11 01:01:02;;;;;;;;;;;19.60;81.90;;;;;;4591977;19;19918;-25
2022/05/11 01:02:33;;;;;;;;;;;19.60;81.90;;;;;;4591749;19;20010;-26
2022/05/11 01:04:08;;;;;;;;;;;19.60;81.90;;;;;;4589562;19;19919;-28
2022/05/11 01:05:40;;;;;;;;;;;19.60;81.90;;;;;;4592213;19;19915;-27
2022/05/11 01:07:12;;;;;;;;;;;19.60;82.00;;;;;;4591804;19;19950;-25
2022/05/11 01:08:42;;;;;;;;;;;19.60;82.00;;;;;;4591529;19;19939;-27
2022/05/11 01:10:13;;;;;;;;;;;19.60;82.00;;;;;;4591468;19;20322;-26
2022/05/11 01:11:45;;;;;;;;;;;19.60;82.00;;;;;;4591355;19;20326;-25
2022/05/11 01:13:17;;;;;;;;;;;19.60;82.00;;;;;;4591424;19;20484;-24
2022/05/11 01:14:49;;;;;;;;;;;19.50;82.00;;;;;;4591534;19;20330;-25
2022/05/11 01:16:20;;;;;;;;;;;19.50;82.10;;;;;;4591375;19;19930;-26
2022/05/11 01:17:51;;;;;;;;;;;19.50;82.10;;;;;;4591560;19;20014;-27
2022/05/11 01:19:24;;;;;;;;;;;19.50;82.20;;;;;;4591480;19;19922;-26
2022/05/11 01:20:55;;;;;;;;;;;19.50;82.30;;;;;;4591904;19;19982;-26
2022/05/11 01:22:31;;;;;;;;;;;19.50;82.30;;;;;;4591667;19;19919;-26
2022/05/11 01:24:03;;;;;;;;;;;19.50;82.40;;;;;;4591913;19;19915;-26
2022/05/11 01:25:34;;;;;;;;;;;19.50;82.50;;;;;;4591378;19;19923;-27
2022/05/11 01:27:23;;;;;;;;;;;19.50;82.50;;;;;;4591281;19;19918;-26
2022/05/11 01:28:54;;;;;;;;;;;19.50;82.50;;;;;;4591225;19;19918;-28
2022/05/11 01:30:25;;;;;;;;;;;19.50;82.50;;;;;;4590959;19;19918;-24
2022/05/11 01:31:56;;;;;;;;;;;19.50;82.50;;;;;;4590483;19;19923;-26
2022/05/11 01:33:27;;;;;;;;;;;19.50;82.50;;;;;;4590935;19;19940;-26
2022/05/11 01:35:05;;;;;;;;;;;19.50;82.50;;;;;;4591339;19;19922;-25
2022/05/11 01:36:36;;;;;;;;;;;19.50;82.50;;;;;;4593016;19;19915;-30
2022/05/11 01:38:07;;;;;;;;;;;19.50;82.50;;;;;;4592676;19;19921;-27
2022/05/11 01:39:38;;;;;;;;;;;19.50;82.50;;;;;;4593403;19;19915;-26
2022/05/11 01:41:09;;;;;;;;;;;19.50;82.50;;;;;;4593739;19;19915;-27
2022/05/11 01:42:41;;;;;;;;;;;19.50;82.60;;;;;;4592487;19;19932;-24
2022/05/11 01:44:13;;;;;;;;;;;19.50;82.50;;;;;;4592793;19;19932;-27
2022/05/11 01:45:44;;;;;;;;;;;19.50;82.60;;;;;;4593410;19;19932;-25
2022/05/11 01:47:15;;;;;;;;;;;19.50;82.50;;;;;;4593378;19;19915;-27
2022/05/11 01:48:46;;;;;;;;;;;19.50;82.50;;;;;;4592830;19;19966;-27
2022/05/11 01:50:17;;;;;;;;;;;19.50;83.10;;;;;;4593146;19;19939;-28
2022/05/11 01:51:48;;;;;;;;;;;19.50;82.60;;;;;;4593058;19;19915;-30
2022/05/11 01:53:19;;;;;;;;;;;19.50;82.60;;;;;;4593571;19;19919;-27
2022/05/11 01:54:50;;;;;;;;;;;19.50;82.70;;;;;;4592909;19;19923;-27
2022/05/11 01:56:22;;;;;;;;;;;19.50;82.70;;;;;;4592864;19;19918;-25
2022/05/11 01:57:53;;;;;;;;;;;19.50;82.70;;;;;;4592036;19;19928;-26
2022/05/11 01:59:24;;;;;;;;;;;19.50;82.70;;;;;;4593027;19;19919;-27
2022/05/11 02:00:55;;;;;;;;;;;19.50;82.70;;;;;;4592768;19;19922;-26
2022/05/11 02:02:26;;;;;;;;;;;19.50;82.60;;;;;;4591903;19;19974;-24
2022/05/11 02:03:57;;;;;;;;;;;19.50;82.70;;;;;;4592932;19;19915;-26
2022/05/11 02:09:23;;;;;;;;;;;19.50;82.80;;;;;;4590356;19;19919;-24
2022/05/11 02:10:54;;;;;;;;;;;19.40;82.80;;;;;;4590450;19;19911;-25
2022/05/11 02:12:25;;;;;;;;;;;19.50;82.80;;;;;;4589873;19;20271;-24
2022/05/11 02:13:59;;;;;;;;;;;19.40;82.70;;;;;;4591097;19;19921;-26
2022/05/11 02:15:30;;;;;;;;;;;19.50;82.70;;;;;;4589759;19;20077;-25
2022/05/11 02:17:01;;;;;;;;;;;19.40;82.70;;;;;;4589258;19;19923;-27
2022/05/11 02:18:32;;;;;;;;;;;19.50;82.70;;;;;;4590153;19;19919;-27
2022/05/11 02:20:03;;;;;;;;;;;19.40;82.70;;;;;;4590950;19;19918;-24
2022/05/11 02:21:34;;;;;;;;;;;19.50;82.80;;;;;;4590278;19;19915;-26
2022/05/11 02:23:05;;;;;;;;;;;19.50;82.80;;;;;;4590121;19;19990;-25
2022/05/11 02:24:36;;;;;;;;;;;19.50;82.90;;;;;;4590428;19;19946;-26
2022/05/11 02:26:10;;;;;;;;;;;19.40;82.90;;;;;;4590060;19;19911;-27
2022/05/11 02:27:41;;;;;;;;;;;19.40;82.90;;;;;;4589832;19;19966;-25
2022/05/11 02:29:13;;;;;;;;;;;19.40;83.00;;;;;;4589839;19;20311;-26
2022/05/11 02:30:44;;;;;;;;;;;19.50;83.10;;;;;;4589616;19;19931;-24
2022/05/11 02:32:15;;;;;;;;;;;19.50;83.10;;;;;;4589187;19;19923;-27
2022/05/11 02:33:46;;;;;;;;;;;19.50;83.10;;;;;;4589808;19;20258;-24
2022/05/11 02:35:17;;;;;;;;;;;19.50;83.10;;;;;;4590352;19;20272;-25
2022/05/11 02:36:48;;;;;;;;;;;19.50;83.20;;;;;;4590094;19;20312;-28
2022/05/11 02:38:24;;;;;;;;;;;19.40;83.20;;;;;;4589997;19;19919;-24
2022/05/11 02:39:55;;;;;;;;;;;19.50;83.30;;;;;;4589781;19;20278;-25
2022/05/11 02:41:26;;;;;;;;;;;19.40;83.30;;;;;;4590169;19;19915;-27
2022/05/11 02:42:57;;;;;;;;;;;19.40;83.40;;;;;;4589877;19;20375;-25
2022/05/11 02:44:28;;;;;;;;;;;19.40;83.40;;;;;;4591552;19;19915;-26
2022/05/11 02:46:00;;;;;;;;;;;19.40;83.50;;;;;;4592386;19;19928;-24
2022/05/11 02:47:30;;;;;;;;;;;19.40;83.50;;;;;;4592416;19;20368;-27
2022/05/11 02:49:02;;;;;;;;;;;19.40;83.50;;;;;;4591596;19;19952;-27
2022/05/11 02:50:34;;;;;;;;;;;19.40;84.10;;;;;;4592020;19;19915;-28
2022/05/11 02:52:05;;;;;;;;;;;19.40;83.60;;;;;;4591535;19;19915;-27
2022/05/11 02:53:36;;;;;;;;;;;19.40;83.60;;;;;;4592336;19;20253;-26
2022/05/11 02:55:07;;;;;;;;;;;19.40;83.60;;;;;;4590458;19;19930;-27
2022/05/11 02:56:39;;;;;;;;;;;19.40;83.60;;;;;;4591371;19;19979;-27
2022/05/11 02:58:11;;;;;;;;;;;19.40;83.70;;;;;;4591989;19;20261;-27
2022/05/11 02:59:41;;;;;;;;;;;19.40;83.70;;;;;;4591684;19;20241;-26
2022/05/11 03:01:13;;;;;;;;;;;19.40;83.80;;;;;;4590327;19;19994;-25
2022/05/11 03:02:43;;;;;;;;;;;19.40;83.80;;;;;;4590260;19;19915;-27
2022/05/11 03:04:14;;;;;;;;;;;19.40;83.90;;;;;;4591523;19;19919;-27
2022/05/11 03:05:45;;;;;;;;;;;19.40;83.90;;;;;;4591074;19;19921;-24
2022/05/11 03:07:16;;;;;;;;;;;19.40;83.90;;;;;;4591422;19;20361;-28
2022/05/11 03:08:47;;;;;;;;;;;19.40;84.00;;;;;;4591879;19;19911;-26
2022/05/11 03:10:18;;;;;;;;;;;19.40;84.00;;;;;;4592102;19;19988;-29
2022/05/11 03:11:49;;;;;;;;;;;19.40;84.00;;;;;;4590905;19;19939;-27
2022/05/11 03:13:20;;;;;;;;;;;19.40;84.60;;;;;;4590190;19;19919;-25
2022/05/11 03:14:53;;;;;;;;;;;19.40;84.10;;;;;;4590791;19;20333;-26
2022/05/11 03:16:24;;;;;;;;;;;19.40;84.20;;;;;;4590038;19;19915;-24
2022/05/11 03:17:54;;;;;;;;;;;19.40;84.20;;;;;;4590743;19;20283;-27
2022/05/11 03:19:26;;;;;;;;;;;19.40;84.30;;;;;;4591592;19;19922;-26
2022/05/11 03:20:57;;;;;;;;;;;19.40;84.30;;;;;;4591410;19;19948;-27
2022/05/11 03:22:28;;;;;;;;;;;19.40;84.30;;;;;;4591488;19;19922;-26
2022/05/11 03:23:59;;;;;;;;;;;19.40;84.40;;;;;;4591099;19;19915;-25
2022/05/11 03:25:31;;;;;;;;;;;19.40;84.40;;;;;;4591595;19;19918;-25
2022/05/11 03:27:02;;;;;;;;;;;19.40;84.50;;;;;;4589572;19;20318;-26
2022/05/11 03:28:33;;;;;;;;;;;19.40;84.50;;;;;;4591024;19;19919;-27
2022/05/11 03:30:05;;;;;;;;;;;19.40;84.60;;;;;;4590806;19;20035;-28
2022/05/11 03:31:36;;;;;;;;;;;19.40;84.70;;;;;;4591046;19;19915;-24
2022/05/11 03:34:56;;;;;;;;;;;19.40;84.80;;;;;;4590922;19;19925;-26
2022/05/11 03:36:27;;;;;;;;;;;19.40;84.90;;;;;;4590880;19;19914;-26
2022/05/11 03:37:58;;;;;;;;;;;19.40;85.00;;;;;;4588396;19;19986;-28
2022/05/11 03:39:29;;;;;;;;;;;19.40;85.10;;;;;;4590063;19;20349;-26
2022/05/11 03:40:59;;;;;;;;;;;19.40;85.10;;;;;;4590879;19;20322;-24
2022/05/11 03:42:31;;;;;;;;;;;19.40;85.20;;;;;;4591243;19;19926;-24
2022/05/11 03:44:02;;;;;;;;;;;19.40;85.20;;;;;;4591126;19;19928;-28
2022/05/11 03:45:33;;;;;;;;;;;19.40;85.20;;;;;;4590939;19;20322;-28
2022/05/11 03:47:04;;;;;;;;;;;19.40;85.30;;;;;;4590788;19;19931;-24
2022/05/11 03:48:37;;;;;;;;;;;19.40;85.30;;;;;;4591158;19;19918;-30
2022/05/11 03:50:08;;;;;;;;;;;19.50;85.40;;;;;;4591309;19;19936;-27
2022/05/11 03:51:40;;;;;;;;;;;19.40;86.00;;;;;;4590291;19;20354;-28
2022/05/11 03:53:13;;;;;;;;;;;19.40;85.40;;;;;;4590819;19;19931;-27
2022/05/11 03:54:44;;;;;;;;;;;19.40;85.40;;;;;;4590770;19;19919;-25
2022/05/11 03:56:17;;;;;;;;;;;19.50;85.60;;;;;;4589997;19;19982;-27
2022/05/11 03:57:48;;;;;;;;;;;19.50;85.60;;;;;;4590013;19;19919;-25
2022/05/11 03:59:19;;;;;;;;;;;19.40;85.60;;;;;;4589653;19;19939;-27
2022/05/11 04:00:50;;;;;;;;;;;19.50;85.70;;;;;;4590427;19;19927;-27
2022/05/11 04:02:21;;;;;;;;;;;19.50;85.70;;;;;;4589488;19;20249;-27
2022/05/11 04:03:52;;;;;;;;;;;19.40;85.70;;;;;;4590023;19;19915;-27
2022/05/11 04:05:23;;;;;;;;;;;19.50;85.90;;;;;;4590773;19;19915;-30
2022/05/11 04:06:54;;;;;;;;;;;19.50;85.90;;;;;;4590845;19;19915;-25
2022/05/11 04:08:26;;;;;;;;;;;19.50;85.90;;;;;;4591122;19;19986;-26
2022/05/11 04:09:57;;;;;;;;;;;19.40;86.00;;;;;;4590479;19;19919;-28
2022/05/11 04:11:29;;;;;;;;;;;19.50;86.10;;;;;;4590873;19;20459;-25
2022/05/11 04:13:00;;;;;;;;;;;19.50;86.20;;;;;;4589335;19;19915;-26
2022/05/11 04:14:31;;;;;;;;;;;19.50;86.20;;;;;;4590111;19;19922;-26
2022/05/11 04:16:02;;;;;;;;;;;19.50;86.20;;;;;;4590597;19;19914;-26
2022/05/11 04:17:34;;;;;;;;;;;19.50;86.20;;;;;;4589338;19;19919;-28
2022/05/11 04:19:05;;;;;;;;;;;19.40;86.30;;;;;;4590474;19;20326;-24
2022/05/11 04:20:36;;;;;;;;;;;19.50;86.40;;;;;;4587784;19;19919;-27
2022/05/11 04:22:07;;;;;;;;;;;19.50;86.40;;;;;;4589442;19;19915;-24
2022/05/11 04:23:40;;;;;;;;;;;19.50;86.50;;;;;;4590779;19;19947;-28
2022/05/11 04:25:15;;;;;;;;;;;19.50;86.60;;;;;;4590788;19;19967;-28
2022/05/11 04:26:46;;;;;;;;;;;19.50;86.70;;;;;;4590027;19;19975;-27
2022/05/11 04:28:17;;;;;;;;;;;19.50;86.70;;;;;;4590439;19;19943;-28
2022/05/11 04:29:48;;;;;;;;;;;19.50;86.80;;;;;;4590573;19;19918;-28
2022/05/11 04:31:19;;;;;;;;;;;19.50;86.80;;;;;;4588684;19;19990;-25
2022/05/11 04:32:50;;;;;;;;;;;19.50;86.90;;;;;;4588636;19;20340;-27
2022/05/11 04:34:22;;;;;;;;;;;19.50;86.90;;;;;;4590424;19;19919;-27
2022/05/11 04:35:52;;;;;;;;;;;19.50;87.00;;;;;;4590202;19;20241;-29
2022/05/11 04:37:24;;;;;;;;;;;19.50;87.00;;;;;;4589773;19;19923;-25
2022/05/11 04:38:55;;;;;;;;;;;19.50;87.10;;;;;;4592931;19;20356;-28
2022/05/11 04:40:26;;;;;;;;;;;19.50;87.20;;;;;;4594397;19;19915;-25
2022/05/11 04:41:57;;;;;;;;;;;19.50;87.20;;;;;;4593473;19;19984;-25
2022/05/11 04:43:28;;;;;;;;;;;19.50;87.30;;;;;;4593842;19;20330;-27
2022/05/11 04:44:59;;;;;;;;;;;19.50;87.40;;;;;;4594650;19;19919;-26
2022/05/11 04:46:33;;;;;;;;;;;19.50;87.40;;;;;;4594979;19;19919;-24
2022/05/11 04:48:04;;;;;;;;;;;19.50;87.50;;;;;;4594630;19;20357;-27
2022/05/11 04:49:34;;;;;;;;;;;19.50;87.50;;;;;;4593333;19;19922;-25
2022/05/11 04:51:07;;;;;;;;;;;19.50;87.60;;;;;;4594102;19;20339;-28
2022/05/11 04:52:38;;;;;;;;;;;19.50;87.70;;;;;;4593334;19;20296;-26
2022/05/11 04:54:09;;;;;;;;;;;19.50;87.70;;;;;;4594103;19;19915;-26
2022/05/11 04:55:40;;;;;;;;;;;19.50;87.80;;;;;;4594457;19;19911;-25
2022/05/11 04:57:11;;;;;;;;;;;19.50;87.90;;;;;;4594661;19;19994;-28
2022/05/11 04:58:42;;;;;;;;;;;19.50;88.00;;;;;;4594388;19;19915;-25
2022/05/11 05:00:13;;;;;;;;;;;19.50;88.10;;;;;;4593902;19;20354;-26
2022/05/11 05:01:45;;;;;;;;;;;19.50;88.10;;;;;;4591768;19;19994;-29
2022/05/11 05:03:16;;;;;;;;;;;19.50;88.30;;;;;;4593512;19;19911;-27
2022/05/11 05:04:47;;;;;;;;;;;19.50;88.40;;;;;;4594300;19;19925;-27
2022/05/11 05:06:18;;;;;;;;;;;19.50;88.50;;;;;;4593894;19;19911;-25
2022/05/11 05:07:49;;;;;;;;;;;19.50;88.60;;;;;;4593928;19;19928;-28
2022/05/11 05:09:20;;;;;;;;;;;19.50;88.70;;;;;;4592827;19;20127;-27
2022/05/11 05:10:51;;;;;;;;;;;19.50;88.70;;;;;;4592612;19;19915;-28
2022/05/11 05:12:24;;;;;;;;;;;19.50;88.80;;;;;;4592625;19;19921;-27
2022/05/11 05:13:54;;;;;;;;;;;19.50;88.90;;;;;;4593813;19;19952;-27
2022/05/11 05:15:26;;;;;;;;;;;19.50;88.90;;;;;;4594022;19;19922;-26
2022/05/11 05:17:03;;;;;;;;;;;19.50;89.00;;;;;;4592830;19;19926;-24
2022/05/11 05:18:35;;;;;;;;;;;19.50;89.10;;;;;;4593743;19;19919;-26
2022/05/11 05:20:07;;;;;;;;;;;19.50;89.20;;;;;;4594207;19;19919;-26
2022/05/11 05:21:38;;;;;;;;;;;19.50;89.10;;;;;;4594359;19;19919;-28
2022/05/11 05:23:09;;;;;;;;;;;19.60;89.10;;;;;;4593413;19;19919;-26
2022/05/11 05:24:41;;;;;;;;;;;19.60;89.00;;;;;;4593816;19;20310;-27
2022/05/11 05:26:11;;;;;;;;;;;19.70;89.00;;;;;;4594299;19;19915;-24
2022/05/11 05:27:43;;;;;;;;;;;19.70;88.90;;;;;;4593981;19;19974;-26
2022/05/11 05:31:11;;;;;;;6.60;5.70;;;19.80;88.90;;;;;;4592383;19;20334;-29
2022/05/11 05:32:43;;;;;;;;;;;18.30;91.80;;;;;;4592182;19;20033;-29
2022/05/11 05:34:15;;;;;;;;;;;17.00;93.70;;;;;;4593622;19;20255;-27
2022/05/11 05:35:46;;;;;;;;;;;16.20;95.10;;;;;;4593222;19;19915;-26
2022/05/11 05:37:17;;;;;;;;;;;15.80;96.00;;;;;;4593408;19;19940;-28
2022/05/11 05:38:48;;;;;;;;;;;15.50;97.10;;;;;;4594529;19;19918;-28
2022/05/11 05:40:19;;;;;;;;;;;15.40;97.30;;;;;;4592990;19;19974;-27
2022/05/11 05:41:50;;;;;;;;;;;15.30;98.20;;;;;;4593741;19;19922;-28
2022/05/11 05:43:22;;;;;;;9.70;7.72;;;15.20;98.30;;;;;;4593418;19;19974;-27
2022/05/11 05:44:53;;;;;;;9.43;7.23;;;15.20;98.60;;;;;;4593287;19;20022;-29
2022/05/11 05:46:24;;;;;;;;;;;15.20;99.20;;;;;;4601073;19;20001;-26
2022/05/11 05:47:55;;;;;;;;;;;15.20;99.90;;;;;;4601187;19;19914;-25
2022/05/11 05:49:26;;;;;;;;;;;15.10;99.90;;;;;;4601125;19;19914;-26
2022/05/11 05:51:05;;;;;;;10.27;7.80;;;15.10;99.90;;;;;;4595502;19;19948;-27
2022/05/11 05:52:36;;;;;;;8.30;7.30;;;15.10;99.90;;;;;;4591881;19;20022;-27
2022/05/11 05:54:07;;;;;;;8.80;7.68;;;15.10;99.90;;;;;;4596782;19;19925;-27
2022/05/11 05:55:38;;;;;;;9.00;8.10;;;15.10;99.90;;;;;;4591673;19;20022;-29
2022/05/11 05:57:09;;;;;;;9.32;7.78;;;15.10;99.90;;;;;;4592301;19;20466;-28
2022/05/11 05:58:42;;;;;;;8.23;7.25;;;15.10;99.90;;;;;;4589398;19;20503;-30
2022/05/11 06:00:14;;;;;;;8.67;7.77;;;15.10;99.90;;;;;;4590072;19;20011;-32
2022/05/11 06:01:45;;;;;;;;;;;15.10;99.90;;;;;;4592716;19;20010;-29
2022/05/11 06:03:22;;;;;;;8.97;7.87;;;15.10;99.90;;;;;;4592319;19;19915;-29
2022/05/11 06:04:54;;;;;;;7.90;7.07;;;15.10;99.90;;;;;;4591682;19;20031;-28
2022/05/11 06:06:25;;;;;;;9.32;8.15;;;15.10;99.90;;;;;;4591797;19;20021;-26
2022/05/11 06:07:56;;;;;;;8.10;7.30;;;15.10;99.90;;;;;;4591948;19;20484;-26
2022/05/11 06:09:28;;;;;;;8.13;7.30;;;15.10;99.90;;;;;;4592447;19;20006;-27
2022/05/11 06:11:00;;;;;;;8.60;7.70;;;15.10;99.90;;;;;;4591647;19;20074;-27
2022/05/11 06:12:30;;;;;;;8.60;7.75;;;15.10;99.90;;;;;;4590933;19;20014;-28
2022/05/11 06:14:02;;;;;;;9.45;7.38;;;15.10;99.90;;;;;;4592029;19;20499;-26
2022/05/11 06:15:33;;;;;;;9.13;8.23;;;15.10;99.90;;;;;;4591880;19;20078;-29
2022/05/11 06:17:11;;;;;;;8.82;7.78;;;15.10;99.90;;;;;;4591047;19;20082;-29
2022/05/11 06:18:43;;;;;;;10.23;8.77;;;15.10;99.90;;;;;;4590234;19;20018;-28
2022/05/11 06:20:14;;;;;;;10.77;9.43;;;15.10;99.90;;;;;;4591214;19;20033;-27
2022/05/11 06:21:47;;;;;;;11.07;9.68;;;15.10;99.90;;;;;;4591844;19;19999;-26
2022/05/11 06:23:19;;;;;;;10.43;9.43;;;15.10;99.90;;;;;;4590018;19;20011;-27
2022/05/11 06:24:50;;;;;;;10.27;8.18;;;15.10;99.90;;;;;;4591442;19;20010;-26
2022/05/11 06:26:21;;;;;;;9.25;8.05;;;15.20;99.90;;;;;;4591970;19;20010;-28
2022/05/11 06:27:52;;;;;;;10.70;8.60;;;15.20;99.90;;;;;;4591147;19;20015;-29
2022/05/11 06:29:23;;;;;;;11.77;9.05;;;15.20;99.90;;;;;;4591765;19;20018;-28
2022/05/11 06:30:54;;;;;;;10.20;8.07;;;15.20;99.90;;;;;;4588296;19;20015;-27
2022/05/11 06:32:25;;;;;;;8.27;7.47;;;15.20;99.90;;;;;;4590352;19;20070;-27
2022/05/11 06:33:56;;;;;;;10.02;8.57;;;15.20;99.90;;;;;;4591181;19;20023;-28
2022/05/11 06:35:28;;;;;;;9.32;8.32;;;15.20;99.90;;;;;;4591532;19;20020;-27
2022/05/11 06:36:59;;;;;;;9.38;8.30;;;15.20;99.90;;;;;;4588675;19;20342;-27
2022/05/11 06:38:30;;;;;;;9.52;8.55;;;15.20;99.90;;;;;;4591004;19;20030;-28
2022/05/11 06:40:00;;;;;;;9.77;8.70;;;15.20;99.90;;;;;;4591009;19;20015;-26
2022/05/11 06:41:32;;;;;;;9.82;8.20;;;15.10;99.90;;;;;;4590008;19;20021;-28
2022/05/11 06:43:03;;;;;;;10.75;8.55;;;15.20;99.90;;;;;;4591136;19;20006;-27
2022/05/11 06:44:34;;;;;;;9.02;8.13;;;15.20;99.90;;;;;;4590929;19;20040;-27
2022/05/11 06:46:05;;;;;;;9.77;8.20;;;15.10;99.90;;;;;;4591196;19;20010;-27
2022/05/11 06:47:36;;;;;;;9.80;8.23;;;15.10;99.90;;;;;;4589904;19;20388;-25
2022/05/11 06:49:08;;;;;;;9.32;8.27;;;15.10;99.90;;;;;;4591125;19;20006;-30
2022/05/11 06:50:39;;;;;;;10.00;8.97;;;15.10;99.90;;;;;;4590771;19;20098;-29
2022/05/11 06:52:10;;;;;;;9.20;8.23;;;15.10;99.90;;;;;;4590794;19;20003;-29
2022/05/11 06:59:20;;;;;;;9.97;8.97;;;15.10;99.90;;;;;;4590532;19;20345;-26
2022/05/11 07:00:51;;;;;;;9.20;8.30;;;15.20;99.90;;;;;;4590442;19;20378;-30
2022/05/11 07:02:22;;;;;;;9.43;7.88;;;15.20;99.90;;;;;;4588814;19;20029;-28
2022/05/11 07:03:53;;;;;;;9.30;8.32;;;15.20;99.90;;;;;;4588320;19;20013;-28
2022/05/11 07:05:24;;;;;;;11.43;8.40;;;15.20;99.90;;;;;;4589952;19;20480;-33
2022/05/11 07:06:56;;;;;;;9.35;8.30;;;15.30;99.90;;;;;;4590472;19;20015;-27
2022/05/11 07:08:37;;;;;;;9.20;8.23;;;15.30;99.90;;;;;;4591273;19;20018;-26
2022/05/11 07:10:08;;;;;;;9.87;8.87;;;15.30;99.90;;;;;;4589758;19;20011;-29
2022/05/11 07:13:29;;;;;;;9.50;8.50;;;15.30;99.90;;;;;;4592558;19;20010;-27
2022/05/11 07:15:00;;;;;;;9.35;7.95;;;15.30;99.90;;;;;;4590595;19;20019;-27
2022/05/11 07:16:31;;;;;;;9.77;8.80;;;15.30;99.90;;;;;;4590488;19;20011;-29
2022/05/11 07:18:05;;;;;;;10.20;9.20;;;15.30;99.90;;;;;;4589287;19;20370;-28
2022/05/11 07:19:40;;;;;;;10.47;9.47;;;15.30;99.90;;;;;;4589916;19;20349;-28
2022/05/11 07:21:13;;;;;;;11.87;10.17;;;15.30;99.90;;;;;;4589105;19;20039;-27
2022/05/11 07:22:44;;;;;;;11.20;10.00;;;15.30;99.90;;;;;;4590152;19;20006;-28
2022/05/11 07:24:15;;;;;;;10.68;9.30;;;15.20;99.90;;;;;;4590027;19;20027;-25
2022/05/11 07:25:46;;;;;;;9.15;8.00;;;15.20;99.90;;;;;;4590199;19;20070;-28
2022/05/11 07:27:18;;;;;;;9.32;8.38;;;15.20;99.90;;;;;;4591920;19;20376;-27
2022/05/11 07:28:49;;;;;;;10.20;9.02;;;15.20;99.90;;;;;;4590121;19;20382;-27
2022/05/11 07:30:23;;;;;;;11.50;9.43;;;15.20;99.90;;;;;;4592376;19;20078;-26
2022/05/11 07:31:54;;;;;;;9.60;8.60;;;15.20;99.90;;;;;;4591392;19;20007;-32
2022/05/11 07:33:27;;;;;;;10.57;9.55;;;15.20;99.90;;;;;;4588996;19;20007;-27
2022/05/11 07:34:58;;;;;;;9.63;8.63;;;15.20;99.90;;;;;;4591133;19;20019;-28
2022/05/11 07:36:29;;;;;;;10.55;9.55;;;15.30;99.90;;;;;;4592206;19;20472;-28
2022/05/11 07:38:00;;;;;;;8.80;7.90;;;15.20;99.90;;;;;;4591852;19;20066;-28
2022/05/11 07:39:31;;;;;;;9.45;8.48;;;15.20;99.90;;;;;;4590144;19;20464;-27
2022/05/11 07:41:02;;;;;;;9.55;8.55;;;15.20;99.90;;;;;;4591511;19;20457;-27
2022/05/11 07:42:33;;;;;;;10.77;8.38;;;15.20;99.90;;;;;;4589772;19;20092;-26
2022/05/11 07:44:04;;;;;;;9.27;8.25;;;15.20;99.90;;;;;;4590334;19;20014;-29
2022/05/11 07:45:36;;;;;;;9.52;8.52;;;15.20;99.90;;;;;;4589469;19;20343;-26
2022/05/11 07:47:07;;;;;;;9.05;8.15;;;15.20;99.90;;;;;;4588900;19;20007;-29
2022/05/11 07:48:38;;;;;;;9.48;8.50;;;15.20;99.90;;;;;;4588630;19;20548;-29
2022/05/11 07:50:13;;;;;;;9.77;8.60;;;15.20;99.90;;;;;;4589637;19;20015;-28
2022/05/11 07:51:45;;;;;;;8.57;6.67;;;15.20;99.90;;;;;;4590687;19;20019;-28
2022/05/11 07:53:16;;;;;;;;;;;15.50;99.90;;;;;;4589293;19;20469;-27
2022/05/11 07:54:47;;;;;;;;;;;15.90;99.90;;;;;;4590599;19;20254;-26
2022/05/11 08:00:01;;;;;;;;;;;17.00;99.90;;;;;;4593487;19;19922;-28
2022/05/11 08:01:32;;;;;;;;;;;17.40;99.90;;;;;;4590555;19;19944;-28
2022/05/11 08:03:03;;;;;;;;;;;17.60;99.90;;;;;;4590831;19;19915;-25
2022/05/11 08:04:35;;;;;;;;;;;17.80;99.90;;;;;;4591064;19;19915;-28
2022/05/11 08:06:06;;;;;;;;;;;18.00;99.90;;;;;;4591124;19;19982;-26
2022/05/11 08:07:41;;;;;;;;;;;18.10;99.90;;;;;;4590419;19;19921;-30
2022/05/11 08:09:13;;;;;;;;;;;18.20;99.90;;;;;;4590785;19;19919;-28
2022/05/11 08:10:44;;;;;;;;;;;18.40;99.90;;;;;;4590700;19;20339;-28
2022/05/11 08:12:15;;;;;;;;;;;18.50;99.90;;;;;;4590334;19;19935;-26
2022/05/11 08:13:46;;;;;;;;;;;18.60;99.90;;;;;;4593132;19;19919;-26
2022/05/11 08:15:17;;;;;;;;;;;18.70;99.90;;;;;;4595419;19;19918;-27
2022/05/11 08:16:52;;;;;;;;;;;18.80;99.90;;;;;;4594249;19;19925;-29
2022/05/11 08:18:23;;;;;;;;;;;18.90;99.90;;;;;;4595858;19;19918;-27
2022/05/11 08:19:54;;;;;;;;;;;18.90;99.90;;;;;;4595877;19;19921;-28
2022/05/11 08:21:25;;;;;;;;;;;19.00;99.90;;;;;;4594771;19;19926;-29
2022/05/11 08:22:56;;;;;;;;;;;19.10;99.90;;;;;;4595467;19;19919;-28
2022/05/11 08:24:27;;;;;;;;;;;19.20;99.90;;;;;;4594850;19;19926;-27
2022/05/11 08:25:58;;;;;;;;;;;19.30;99.90;;;;;;4595055;19;19914;-31
2022/05/11 08:27:29;;;;;;;;;;;19.30;99.90;;;;;;4595301;19;19919;-27
2022/05/11 08:29:00;;;;;;;;;;;19.30;99.90;;;;;;4595022;19;19952;-28
2022/05/11 08:34:10;;;;;;;;;;;19.50;99.90;;;;;;4594480;19;20333;-26
2022/05/11 08:35:43;;;;;;;;;;;19.60;99.90;;;;;;4595168;19;19966;-27
2022/05/11 08:37:14;;;;;;;;;;;19.60;99.90;;;;;;4594822;19;19921;-28
2022/05/11 08:38:45;;;;;;;;;;;19.70;99.90;;;;;;4593274;19;19926;-26
2022/05/11 08:40:28;;;;;;;;;;;19.70;99.90;;;;;;4596408;19;19919;-28
2022/05/11 08:42:00;;;;;;;;;;;19.80;99.90;;;;;;4594316;19;20374;-27
2022/05/11 08:43:34;;;;;;;;;;;19.90;99.90;;;;;;4592153;19;19915;-28
2022/05/11 08:45:05;;;;;;;;;;;19.90;99.90;;;;;;4592277;19;19914;-29
2022/05/11 08:46:47;;;;;;;;;;;20.00;99.90;;;;;;4592235;19;19917;-24
2022/05/11 08:48:26;;;;;;;;;;;20.00;99.90;;;;;;4592338;19;19910;-28
2022/05/11 08:50:04;;;;;;;;;;;20.10;99.90;;;;;;4592418;19;19911;-29
2022/05/11 08:51:45;;;;;;;;;;;20.10;99.90;;;;;;4591809;19;19915;-29
2022/05/11 08:53:22;;;;;;;;;;;20.10;99.90;;;;;;4590702;19;20035;-28
2022/05/11 08:54:58;;;;;;;;;;;20.20;99.90;;;;;;4592494;19;19991;-29
2022/05/11 08:56:29;;;;;;;;;;;20.20;99.90;;;;;;4592075;19;20381;-29
2022/05/11 08:58:04;;;;;;;;;;;20.20;99.90;;;;;;4592131;19;19915;-30
2022/05/11 08:59:36;;;;;;;;;;;20.30;99.90;;;;;;4592026;19;19914;-26
2022/05/11 09:01:08;;;;;;;;;;;20.30;99.90;;;;;;4594877;19;20365;-29
2022/05/11 09:02:39;;;;;;;;;;;20.40;99.90;;;;;;4592046;19;19948;-28